Time;durP1;ratioP1;P1;durP2;ratioP2;P2;SDS_P1;SDS_P2;PMS_P1;PMS_P2;Temp;Humidity;BMP_temperature;BMP_pressure;BME280_temperature;BME280_humidity;BME280_pressure;Samples;Min_cycle;Max_cycle;Signal;HPM_P1;HPM_P2
2023/10/06 00:02:19;;;;;;;5.23;2.47;;;;;;;;;;5064923;28;20236;-38
2023/10/06 00:04:46;;;;;;;4.83;2.73;;;;;;;;;;5063353;28;20226;-35
2023/10/06 00:07:15;;;;;;;4.00;2.60;;;;;;;;;;5065662;28;20203;-38
2023/10/06 00:09:44;;;;;;;6.57;3.17;;;;;;;;;;5070601;28;20232;-38
2023/10/06 00:12:13;;;;;;;4.97;2.67;;;;;;;;;;5063707;28;20213;-36
2023/10/06 00:14:43;;;;;;;4.87;2.57;;;;;;;;;;5068997;28;20662;-38
2023/10/06 00:17:15;;;;;;;6.77;2.67;;;;;;;;;;5069241;28;20234;-35
2023/10/06 00:19:43;;;;;;;3.87;2.57;;;;;;;;;;5064169;28;20673;-38
2023/10/06 00:22:17;;;;;;;3.47;2.43;;;;;;;;;;5070035;28;20205;-35
2023/10/06 00:24:47;;;;;;;2.70;2.27;;;;;;;;;;5070174;28;20255;-35
2023/10/06 00:27:14;;;;;;;5.57;2.80;;;;;;;;;;5065169;28;20211;-33
2023/10/06 00:29:43;;;;;;;3.97;2.57;;;;;;;;;;5071743;28;20260;-41
2023/10/06 00:32:25;;;;;;;4.13;2.07;;;;;;;;;;5069917;28;20212;-37
2023/10/06 00:34:54;;;;;;;4.73;2.50;;;;;;;;;;5066481;28;20209;-38
2023/10/06 00:37:22;;;;;;;5.20;2.60;;;;;;;;;;5066914;28;20221;-39
2023/10/06 00:39:50;;;;;;;3.27;2.80;;;;;;;;;;5070712;28;20343;-38
2023/10/06 00:42:26;;;;;;;4.50;2.80;;;;;;;;;;5058498;28;20576;-39
2023/10/06 00:44:54;;;;;;;6.80;2.30;;;;;;;;;;5067734;28;20531;-40
2023/10/06 00:47:24;;;;;;;4.53;2.63;;;;;;;;;;5069221;28;20396;-40
2023/10/06 00:49:55;;;;;;;4.30;2.33;;;;;;;;;;5065518;28;20247;-36
2023/10/06 00:52:22;;;;;;;4.37;2.60;;;;;;;;;;5064939;28;20220;-42
2023/10/06 00:54:50;;;;;;;2.53;2.10;;;;;;;;;;5069663;28;20235;-37
2023/10/06 00:57:20;;;;;;;3.67;2.33;;;;;;;;;;5061643;28;20205;-36
2023/10/06 00:59:49;;;;;;;4.07;2.47;;;;;;;;;;5066907;28;20231;-39
2023/10/06 01:02:17;;;;;;;4.23;2.70;;;;;;;;;;5062042;28;20279;-42
2023/10/06 01:04:46;;;;;;;3.53;2.30;;;;;;;;;;5061741;28;20225;-34
2023/10/06 01:07:16;;;;;;;3.80;2.03;;;;;;;;;;5067210;28;20205;-36
2023/10/06 01:09:56;;;;;;;4.47;2.60;;;;;;;;;;5058678;28;20234;-38
2023/10/06 01:12:23;;;;;;;3.23;2.20;;;;;;;;;;5057686;28;20619;-39
2023/10/06 01:14:52;;;;;;;4.20;2.23;;;;;;;;;;5068587;28;20235;-37
2023/10/06 01:17:20;;;;;;;4.20;2.27;;;;;;;;;;5068218;28;20213;-37
2023/10/06 01:19:49;;;;;;;6.43;2.80;;;;;;;;;;5063399;28;20753;-37
2023/10/06 01:22:24;;;;;;;2.20;2.00;;;;;;;;;;5064398;28;20240;-36
2023/10/06 01:24:52;;;;;;;4.53;2.50;;;;;;;;;;5051195;28;20225;-35
2023/10/06 01:27:25;;;;;;;2.33;1.87;;;;;;;;;;5059768;28;20205;-35
2023/10/06 01:30:07;;;;;;;5.90;3.03;;;;;;;;;;5068668;28;20251;-40
2023/10/06 01:32:36;;;;;;;3.17;2.20;;;;;;;;;;5067628;28;20197;-41
2023/10/06 01:35:05;;;;;;;4.53;2.53;;;;;;;;;;5065754;28;20301;-38
2023/10/06 01:37:33;;;;;;;3.23;2.17;;;;;;;;;;5064804;28;20236;-37
2023/10/06 01:40:07;;;;;;;5.33;2.17;;;;;;;;;;5068719;28;20335;-37
2023/10/06 01:42:35;;;;;;;3.97;2.23;;;;;;;;;;5054829;28;20235;-35
2023/10/06 01:45:13;;;;;;;4.43;2.50;;;;;;;;;;5067993;28;20225;-40
2023/10/06 01:47:40;;;;;;;3.83;2.13;;;;;;;;;;5068309;28;20663;-36
2023/10/06 01:50:09;;;;;;;4.63;2.50;;;;;;;;;;5059735;28;20235;-34
2023/10/06 01:52:40;;;;;;;3.03;2.23;;;;;;;;;;5060889;28;20204;-41
2023/10/06 01:55:09;;;;;;;4.00;2.40;;;;;;;;;;5068225;28;20201;-36
2023/10/06 01:57:36;;;;;;;3.07;2.20;;;;;;;;;;5062617;28;20272;-40
2023/10/06 02:00:06;;;;;;;3.17;1.80;;;;;;;;;;5065466;28;20229;-39
2023/10/06 02:02:33;;;;;;;2.30;2.10;;;;;;;;;;5068603;28;20612;-43
2023/10/06 02:05:01;;;;;;;3.17;2.10;;;;;;;;;;5067159;28;20228;-37
2023/10/06 02:07:28;;;;;;;3.00;2.10;;;;;;;;;;5057297;28;20213;-37
2023/10/06 02:09:56;;;;;;;6.13;2.83;;;;;;;;;;5068343;28;20321;-37
2023/10/06 02:12:24;;;;;;;2.13;1.93;;;;;;;;;;5060956;28;20304;-42
2023/10/06 02:14:51;;;;;;;4.07;2.13;;;;;;;;;;5068909;28;20237;-37
2023/10/06 02:17:18;;;;;;;5.27;2.57;;;;;;;;;;5067904;28;20201;-39
2023/10/06 02:19:45;;;;;;;4.23;2.80;;;;;;;;;;5060023;28;20716;-38
2023/10/06 02:22:13;;;;;;;3.37;2.17;;;;;;;;;;5062393;28;20351;-39
2023/10/06 02:24:42;;;;;;;2.57;2.23;;;;;;;;;;5068706;28;20224;-39
2023/10/06 02:27:11;;;;;;;3.90;2.20;;;;;;;;;;5061595;28;20198;-39
2023/10/06 02:29:38;;;;;;;4.03;2.57;;;;;;;;;;5065064;28;20278;-39
2023/10/06 02:32:06;;;;;;;3.60;2.13;;;;;;;;;;5067967;28;20684;-41
2023/10/06 02:34:38;;;;;;;3.57;2.20;;;;;;;;;;5069157;28;20237;-35
2023/10/06 02:37:06;;;;;;;4.07;2.63;;;;;;;;;;5055726;28;20278;-41
2023/10/06 02:39:34;;;;;;;2.60;2.10;;;;;;;;;;5068268;28;20348;-39
2023/10/06 02:42:07;;;;;;;3.00;2.00;;;;;;;;;;5059828;28;20210;-36
2023/10/06 02:44:38;;;;;;;3.27;2.30;;;;;;;;;;5065679;28;20677;-38
2023/10/06 02:47:09;;;;;;;5.43;2.53;;;;;;;;;;5066939;28;20204;-38
2023/10/06 02:49:38;;;;;;;2.57;2.33;;;;;;;;;;5071825;28;20320;-34
2023/10/06 02:52:13;;;;;;;4.37;2.47;;;;;;;;;;5062056;28;20292;-39
2023/10/06 02:54:45;;;;;;;3.63;2.47;;;;;;;;;;5053544;28;20196;-35
2023/10/06 02:57:19;;;;;;;4.07;2.30;;;;;;;;;;5065708;28;20266;-36
2023/10/06 02:59:48;;;;;;;3.93;2.33;;;;;;;;;;5069930;28;20297;-36
2023/10/06 03:02:18;;;;;;;2.87;2.23;;;;;;;;;;5065618;28;20206;-37
2023/10/06 03:04:54;;;;;;;4.43;2.33;;;;;;;;;;5059682;28;20226;-42
2023/10/06 03:07:22;;;;;;;2.50;2.07;;;;;;;;;;5063753;28;20213;-33
2023/10/06 03:09:49;;;;;;;3.90;2.13;;;;;;;;;;5072094;28;20325;-38
2023/10/06 03:12:26;;;;;;;3.93;1.97;;;;;;;;;;5066914;28;20212;-38
2023/10/06 03:15:02;;;;;;;4.00;1.97;;;;;;;;;;5072913;28;20279;-37
2023/10/06 03:17:30;;;;;;;3.53;2.10;;;;;;;;;;5072976;28;20201;-41
2023/10/06 03:20:08;;;;;;;2.43;1.93;;;;;;;;;;5066134;28;20225;-37
2023/10/06 03:22:37;;;;;;;2.57;2.13;;;;;;;;;;5071539;28;20209;-41
2023/10/06 03:25:14;;;;;;;3.80;2.53;;;;;;;;;;5072023;28;20237;-36
2023/10/06 03:27:41;;;;;;;3.10;2.43;;;;;;;;;;5067984;28;20651;-38
2023/10/06 03:30:18;;;;;;;2.73;2.17;;;;;;;;;;5070989;28;20312;-38
2023/10/06 03:32:48;;;;;;;3.67;2.50;;;;;;;;;;5059581;28;20216;-39
2023/10/06 03:35:23;;;;;;;3.93;2.43;;;;;;;;;;5060162;28;20255;-37
2023/10/06 03:37:52;;;;;;;2.93;2.23;;;;;;;;;;5068074;28;20200;-35
2023/10/06 03:40:22;;;;;;;2.80;2.07;;;;;;;;;;5070177;28;20278;-39
2023/10/06 03:42:50;;;;;;;4.03;2.30;;;;;;;;;;5065799;28;20408;-35
2023/10/06 03:45:26;;;;;;;4.40;2.50;;;;;;;;;;5070542;28;20224;-38
2023/10/06 03:47:53;;;;;;;5.93;2.70;;;;;;;;;;5070777;28;20197;-39
2023/10/06 03:50:21;;;;;;;4.33;2.20;;;;;;;;;;5070378;28;20217;-37
2023/10/06 03:52:48;;;;;;;4.57;2.43;;;;;;;;;;5055778;28;20666;-38
2023/10/06 03:55:17;;;;;;;4.60;2.27;;;;;;;;;;5066857;28;20205;-39
2023/10/06 03:57:45;;;;;;;3.83;2.40;;;;;;;;;;5063609;28;20212;-42
2023/10/06 04:00:17;;;;;;;5.27;2.87;;;;;;;;;;5070289;28;20312;-33
2023/10/06 04:02:48;;;;;;;3.37;2.37;;;;;;;;;;5067647;28;20239;-33
2023/10/06 04:05:18;;;;;;;4.47;2.20;;;;;;;;;;5070311;28;20464;-38
2023/10/06 04:07:46;;;;;;;3.57;2.07;;;;;;;;;;5062177;28;20205;-37
2023/10/06 04:10:15;;;;;;;2.90;2.43;;;;;;;;;;5069685;28;20224;-41
2023/10/06 04:12:43;;;;;;;3.70;2.57;;;;;;;;;;5062221;28;20197;-35
2023/10/06 04:15:14;;;;;;;2.80;2.23;;;;;;;;;;5070468;28;20288;-37
2023/10/06 04:17:41;;;;;;;3.57;2.30;;;;;;;;;;5064837;28;20251;-36
2023/10/06 04:20:14;;;;;;;6.50;2.67;;;;;;;;;;5059687;28;20388;-38
2023/10/06 04:22:42;;;;;;;8.03;2.87;;;;;;;;;;5066100;28;20205;-36
2023/10/06 04:25:11;;;;;;;2.57;2.27;;;;;;;;;;5069823;28;20285;-36
2023/10/06 04:27:38;;;;;;;3.17;2.43;;;;;;;;;;5058058;28;20656;-41
2023/10/06 04:30:11;;;;;;;5.00;3.33;;;;;;;;;;5069771;28;20240;-39
2023/10/06 04:32:40;;;;;;;3.80;2.40;;;;;;;;;;5068150;28;20259;-37
2023/10/06 04:35:19;;;;;;;5.30;3.17;;;;;;;;;;5066148;28;20271;-39
2023/10/06 04:37:48;;;;;;;4.77;2.77;;;;;;;;;;5061547;28;20209;-38
2023/10/06 04:40:18;;;;;;;3.83;2.43;;;;;;;;;;5069723;28;20240;-36
2023/10/06 04:42:46;;;;;;;4.53;2.60;;;;;;;;;;5063274;28;20220;-38
2023/10/06 04:45:13;;;;;;;4.30;2.80;;;;;;;;;;5065815;28;20220;-37
2023/10/06 04:47:41;;;;;;;3.37;2.53;;;;;;;;;;5069817;28;20212;-37
2023/10/06 04:50:11;;;;;;;5.57;2.40;;;;;;;;;;5069095;28;20217;-39
2023/10/06 04:52:38;;;;;;;3.30;2.53;;;;;;;;;;5073566;28;20679;-42
2023/10/06 04:55:11;;;;;;;2.83;2.40;;;;;;;;;;5073540;28;20201;-36
2023/10/06 04:57:38;;;;;;;6.30;2.97;;;;;;;;;;5062467;28;20210;-36
2023/10/06 05:00:13;;;;;;;4.57;2.63;;;;;;;;;;5072817;28;20232;-40
2023/10/06 05:02:42;;;;;;;4.30;3.10;;;;;;;;;;5070001;28;20209;-38
2023/10/06 05:05:10;;;;;;;7.67;3.40;;;;;;;;;;5060789;28;20229;-42
2023/10/06 05:07:37;;;;;;;5.57;3.03;;;;;;;;;;5065865;28;20209;-38
2023/10/06 05:10:08;;;;;;;4.77;2.70;;;;;;;;;;5069130;28;20217;-41
2023/10/06 05:12:38;;;;;;;4.10;2.50;;;;;;;;;;5061272;28;20209;-39
2023/10/06 05:15:09;;;;;;;4.67;2.53;;;;;;;;;;5060711;28;20247;-39
2023/10/06 05:17:37;;;;;;;4.80;2.87;;;;;;;;;;5063042;28;20659;-37
2023/10/06 05:20:04;;;;;;;3.80;2.43;;;;;;;;;;5069807;28;20294;-36
2023/10/06 05:22:31;;;;;;;3.73;2.53;;;;;;;;;;5059988;28;20292;-35
2023/10/06 05:25:01;;;;;;;4.87;2.63;;;;;;;;;;5069549;28;20221;-39
2023/10/06 05:27:30;;;;;;;6.57;3.03;;;;;;;;;;5058277;28;20205;-42
2023/10/06 05:29:57;;;;;;;2.73;2.30;;;;;;;;;;5068433;28;20316;-37
2023/10/06 05:32:25;;;;;;;4.47;2.27;;;;;;;;;;5062830;28;20212;-36
2023/10/06 05:34:52;;;;;;;4.70;2.67;;;;;;;;;;5065763;28;20662;-40
2023/10/06 05:37:19;;;;;;;3.80;2.07;;;;;;;;;;5063605;28;20292;-38
2023/10/06 05:39:46;;;;;;;3.13;2.30;;;;;;;;;;5069921;28;20275;-38
2023/10/06 05:42:14;;;;;;;5.10;2.77;;;;;;;;;;5061522;28;20216;-34
2023/10/06 05:44:43;;;;;;;3.53;2.60;;;;;;;;;;5065957;28;20223;-34
2023/10/06 05:47:10;;;;;;;3.63;2.60;;;;;;;;;;5069448;28;20402;-35
2023/10/06 05:49:38;;;;;;;3.30;2.03;;;;;;;;;;5068728;28;20232;-39
2023/10/06 05:52:10;;;;;;;3.20;2.07;;;;;;;;;;5058885;28;20650;-40
2023/10/06 05:54:37;;;;;;;4.53;2.60;;;;;;;;;;5069012;28;20659;-36
2023/10/06 05:57:05;;;;;;;5.27;2.67;;;;;;;;;;5062747;28;20201;-36
2023/10/06 05:59:36;;;;;;;3.13;2.30;;;;;;;;;;5065720;28;20287;-33
2023/10/06 06:02:04;;;;;;;4.23;3.07;;;;;;;;;;5071379;28;20205;-38
2023/10/06 06:04:34;;;;;;;3.73;3.17;;;;;;;;;;5071160;28;20350;-42
2023/10/06 06:07:03;;;;;;;6.07;3.27;;;;;;;;;;5065826;28;20202;-38
2023/10/06 06:09:33;;;;;;;6.10;3.37;;;;;;;;;;5068152;28;20220;-35
2023/10/06 06:12:01;;;;;;;7.37;4.77;;;;;;;;;;5062441;28;20208;-40
2023/10/06 06:14:28;;;;;;;5.63;3.53;;;;;;;;;;5063811;28;20212;-38
2023/10/06 06:16:55;;;;;;;6.17;3.90;;;;;;;;;;5069367;28;20258;-38
2023/10/06 06:19:24;;;;;;;8.00;3.87;;;;;;;;;;5057791;28;20210;-41
2023/10/06 06:21:52;;;;;;;6.20;2.70;;;;;;;;;;5073133;28;20205;-36
2023/10/06 06:24:22;;;;;;;5.63;3.50;;;;;;;;;;5074444;28;20205;-37
2023/10/06 06:26:50;;;;;;;4.60;3.00;;;;;;;;;;5068392;28;20601;-41
2023/10/06 06:29:19;;;;;;;4.07;3.40;;;;;;;;;;5073797;28;20212;-40
2023/10/06 06:31:46;;;;;;;5.93;3.27;;;;;;;;;;5074073;28;20213;-36
2023/10/06 06:34:13;;;;;;;4.23;3.00;;;;;;;;;;5062763;28;20205;-39
2023/10/06 06:36:43;;;;;;;6.53;3.20;;;;;;;;;;5060390;28;20202;-37
2023/10/06 06:39:10;;;;;;;6.63;3.70;;;;;;;;;;5072401;28;20256;-39
2023/10/06 06:41:38;;;;;;;4.67;3.40;;;;;;;;;;5069090;28;20237;-35
2023/10/06 06:44:05;;;;;;;7.10;3.00;;;;;;;;;;5074701;28;20205;-36
2023/10/06 06:46:33;;;;;;;3.70;2.67;;;;;;;;;;5074027;28;20229;-38
2023/10/06 06:49:00;;;;;;;4.50;2.70;;;;;;;;;;5066675;28;20201;-41
2023/10/06 06:51:30;;;;;;;5.77;3.20;;;;;;;;;;5066095;28;20221;-41
2023/10/06 06:53:58;;;;;;;4.43;3.20;;;;;;;;;;5069419;28;20208;-38
2023/10/06 06:56:28;;;;;;;5.33;2.93;;;;;;;;;;5067231;28;20596;-34
2023/10/06 06:58:55;;;;;;;3.60;2.83;;;;;;;;;;5072997;28;20205;-37
2023/10/06 07:01:29;;;;;;;4.27;2.63;;;;;;;;;;5064165;28;20288;-34
2023/10/06 07:04:00;;;;;;;4.47;3.03;;;;;;;;;;5066555;28;20387;-37
2023/10/06 07:06:27;;;;;;;5.20;3.27;;;;;;;;;;5071600;28;20244;-36
2023/10/06 07:08:57;;;;;;;5.20;2.90;;;;;;;;;;5067231;28;20227;-40
2023/10/06 07:11:26;;;;;;;5.00;2.70;;;;;;;;;;5061065;28;20267;-36
2023/10/06 07:13:55;;;;;;;4.47;2.97;;;;;;;;;;5064720;28;20689;-35
2023/10/06 07:16:24;;;;;;;4.40;2.70;;;;;;;;;;5073749;28;20254;-39
2023/10/06 07:18:53;;;;;;;4.80;2.67;;;;;;;;;;5072732;28;20205;-38
2023/10/06 07:21:22;;;;;;;3.73;2.70;;;;;;;;;;5059336;28;20222;-39
2023/10/06 07:23:51;;;;;;;3.87;2.67;;;;;;;;;;5063474;28;20209;-37
2023/10/06 07:26:19;;;;;;;6.70;3.50;;;;;;;;;;5068299;28;20626;-36
2023/10/06 07:28:51;;;;;;;8.13;3.47;;;;;;;;;;5062848;28;20212;-42
2023/10/06 07:31:19;;;;;;;4.77;3.03;;;;;;;;;;5063669;28;20312;-39
2023/10/06 07:33:48;;;;;;;4.77;3.10;;;;;;;;;;5071926;28;20213;-37
2023/10/06 07:36:17;;;;;;;6.20;2.90;;;;;;;;;;5065026;28;20210;-33
2023/10/06 07:38:44;;;;;;;8.10;3.23;;;;;;;;;;5071849;28;20201;-37
2023/10/06 07:41:18;;;;;;;3.83;2.77;;;;;;;;;;5070332;28;20234;-41
2023/10/06 07:43:48;;;;;;;5.03;3.13;;;;;;;;;;5072546;28;20736;-35
2023/10/06 07:46:16;;;;;;;5.37;3.10;;;;;;;;;;5073105;28;20225;-39
2023/10/06 07:48:44;;;;;;;5.57;3.13;;;;;;;;;;5073395;28;20205;-38
2023/10/06 07:51:13;;;;;;;5.67;3.00;;;;;;;;;;5069010;28;20285;-38
2023/10/06 07:53:40;;;;;;;4.37;3.07;;;;;;;;;;5069446;28;20256;-33
2023/10/06 07:56:07;;;;;;;7.03;4.47;;;;;;;;;;5069268;28;20206;-40
2023/10/06 07:58:37;;;;;;;4.97;2.93;;;;;;;;;;5065619;28;20217;-40
2023/10/06 08:01:07;;;;;;;5.33;4.00;;;;;;;;;;5065346;28;20228;-37
2023/10/06 08:03:37;;;;;;;7.00;4.30;;;;;;;;;;5073274;28;20274;-36
2023/10/06 08:06:05;;;;;;;7.47;4.00;;;;;;;;;;5064639;28;20311;-40
2023/10/06 08:08:33;;;;;;;12.23;5.23;;;;;;;;;;5072104;28;20209;-33
2023/10/06 08:11:01;;;;;;;5.23;3.83;;;;;;;;;;5066928;28;20225;-34
2023/10/06 08:13:30;;;;;;;8.70;4.23;;;;;;;;;;5067944;28;20248;-41
2023/10/06 08:15:58;;;;;;;7.50;4.77;;;;;;;;;;5071613;28;20205;-34
2023/10/06 08:18:25;;;;;;;9.67;4.63;;;;;;;;;;5072103;28;20647;-41
2023/10/06 08:20:54;;;;;;;6.70;4.87;;;;;;;;;;5066499;28;20308;-40
2023/10/06 08:23:21;;;;;;;7.07;4.00;;;;;;;;;;5062822;28;20215;-42
2023/10/06 08:25:49;;;;;;;7.33;3.67;;;;;;;;;;5070970;28;20308;-42
2023/10/06 08:28:16;;;;;;;7.07;3.80;;;;;;;;;;5062381;28;20745;-37
2023/10/06 08:30:43;;;;;;;7.57;3.60;;;;;;;;;;5067478;28;20229;-39
2023/10/06 08:33:11;;;;;;;7.77;3.80;;;;;;;;;;5072009;28;20202;-42
2023/10/06 08:35:40;;;;;;;6.23;3.90;;;;;;;;;;5066824;28;20206;-37
2023/10/06 08:38:09;;;;;;;6.33;3.47;;;;;;;;;;5064128;28;20338;-41
2023/10/06 08:40:38;;;;;;;8.07;4.57;;;;;;;;;;5071906;28;20237;-41
2023/10/06 08:43:08;;;;;;;6.10;3.93;;;;;;;;;;5064004;28;20288;-39
2023/10/06 08:45:41;;;;;;;8.23;5.00;;;;;;;;;;5067603;28;20213;-40
2023/10/06 08:48:10;;;;;;;6.03;4.03;;;;;;;;;;5068394;28;20202;-35
2023/10/06 08:50:38;;;;;;;7.73;4.37;;;;;;;;;;5069932;28;20703;-39
2023/10/06 08:53:09;;;;;;;7.37;4.47;;;;;;;;;;5064622;28;20350;-34
2023/10/06 08:55:38;;;;;;;8.80;4.33;;;;;;;;;;5069808;28;20250;-35
2023/10/06 08:58:07;;;;;;;6.23;4.50;;;;;;;;;;5058756;28;20561;-35
2023/10/06 09:00:36;;;;;;;9.00;4.97;;;;;;;;;;5067147;28;20240;-36
2023/10/06 09:03:07;;;;;;;7.80;4.63;;;;;;;;;;5070102;28;20268;-33
2023/10/06 09:05:35;;;;;;;7.23;4.10;;;;;;;;;;5070193;28;20208;-35
2023/10/06 09:08:05;;;;;;;9.13;4.27;;;;;;;;;;5060776;28;20202;-38
2023/10/06 09:10:32;;;;;;;9.37;4.57;;;;;;;;;;5069316;28;20552;-36
2023/10/06 09:13:02;;;;;;;5.20;3.77;;;;;;;;;;5054633;28;20210;-42
2023/10/06 09:15:32;;;;;;;8.13;4.83;;;;;;;;;;5064413;28;20652;-38
2023/10/06 09:17:59;;;;;;;9.03;4.37;;;;;;;;;;5065488;28;20285;-37
2023/10/06 09:20:31;;;;;;;6.40;4.03;;;;;;;;;;5060293;28;20266;-42
2023/10/06 09:22:59;;;;;;;10.50;4.40;;;;;;;;;;5071364;28;20205;-38
2023/10/06 09:25:27;;;;;;;10.77;4.40;;;;;;;;;;5067700;28;20231;-38
2023/10/06 09:28:08;;;;;;;7.77;4.20;;;;;;;;;;5061324;28;20239;-39
2023/10/06 09:30:49;;;;;;;9.67;4.83;;;;;;;;;;5067196;28;20919;-35
2023/10/06 09:33:17;;;;;;;7.00;4.10;;;;;;;;;;5064828;28;20200;-35
2023/10/06 09:35:44;;;;;;;10.90;4.10;;;;;;;;;;5061041;28;20202;-36
2023/10/06 09:38:13;;;;;;;8.17;3.83;;;;;;;;;;5071067;28;20209;-34
2023/10/06 09:40:44;;;;;;;8.10;4.53;;;;;;;;;;5071666;28;20292;-42
2023/10/06 09:43:16;;;;;;;9.93;4.43;;;;;;;;;;5056938;28;20222;-35
2023/10/06 09:45:43;;;;;;;6.57;4.10;;;;;;;;;;5068525;28;20241;-39
2023/10/06 09:48:15;;;;;;;7.77;4.13;;;;;;;;;;5062611;28;20205;-35
2023/10/06 09:50:46;;;;;;;8.00;4.23;;;;;;;;;;5069466;28;20304;-35
2023/10/06 09:53:14;;;;;;;10.07;4.20;;;;;;;;;;5063791;28;20627;-38
2023/10/06 09:55:42;;;;;;;11.03;5.10;;;;;;;;;;5071412;28;20208;-37
2023/10/06 09:58:10;;;;;;;8.20;4.10;;;;;;;;;;5064799;28;20197;-36
2023/10/06 10:00:41;;;;;;;9.73;5.27;;;;;;;;;;5067334;28;20245;-39
2023/10/06 10:03:12;;;;;;;9.10;5.17;;;;;;;;;;5071682;28;20284;-37
2023/10/06 10:05:39;;;;;;;8.73;4.87;;;;;;;;;;5067747;28;20205;-37
2023/10/06 10:08:07;;;;;;;12.87;5.40;;;;;;;;;;5070663;28;20213;-33
2023/10/06 10:10:35;;;;;;;9.27;5.23;;;;;;;;;;5071395;28;20228;-35
2023/10/06 10:13:35;;;;;;;8.07;4.77;;;;;;;;;;5057219;28;20202;-36
2023/10/06 10:16:13;;;;;;;7.13;5.03;;;;;;;;;;5009792;28;20300;-34
2023/10/06 10:18:41;;;;;;;9.97;5.10;;;;;;;;;;5009508;28;20213;-40
2023/10/06 10:21:11;;;;;;;8.80;5.10;;;;;;;;;;5036099;28;20217;-38
2023/10/06 10:23:40;;;;;;;11.27;4.27;;;;;;;;;;5064690;28;20213;-34
2023/10/06 10:26:16;;;;;;;10.63;5.33;;;;;;;;;;5067789;28;20349;-39
2023/10/06 10:28:43;;;;;;;10.30;5.70;;;;;;;;;;5063119;28;20204;-36
2023/10/06 10:31:17;;;;;;;10.37;5.13;;;;;;;;;;5071395;28;21000;-38
2023/10/06 10:33:46;;;;;;;10.53;4.80;;;;;;;;;;5071679;28;20264;-38
2023/10/06 10:36:20;;;;;;;10.77;5.00;;;;;;;;;;5062456;28;20210;-41
2023/10/06 10:38:57;;;;;;;8.10;4.27;;;;;;;;;;5067142;28;20674;-43
2023/10/06 10:41:26;;;;;;;9.90;5.43;;;;;;;;;;5059190;28;20316;-41
2023/10/06 10:43:55;;;;;;;7.03;4.60;;;;;;;;;;5062945;28;20201;-37
2023/10/06 10:46:32;;;;;;;11.20;5.33;;;;;;;;;;5071389;28;20205;-38
2023/10/06 10:49:01;;;;;;;9.47;5.13;;;;;;;;;;5070730;28;20208;-36
2023/10/06 10:51:33;;;;;;;7.87;5.30;;;;;;;;;;5060881;28;20224;-36
2023/10/06 10:54:00;;;;;;;8.53;4.87;;;;;;;;;;5070988;28;20299;-41
2023/10/06 10:56:34;;;;;;;8.47;4.87;;;;;;;;;;5064657;28;20668;-38
2023/10/06 10:59:02;;;;;;;8.47;4.83;;;;;;;;;;5053137;28;20212;-36
2023/10/06 11:01:33;;;;;;;6.37;4.83;;;;;;;;;;5070865;28;20222;-35
2023/10/06 11:04:21;;;;;;;10.13;4.90;;;;;;;;;;5071212;28;20214;-38
2023/10/06 11:06:49;;;;;;;8.53;5.10;;;;;;;;;;5062579;28;20215;-39
2023/10/06 11:09:25;;;;;;;7.57;4.47;;;;;;;;;;5065962;28;20206;-41
2023/10/06 11:11:55;;;;;;;7.63;5.03;;;;;;;;;;5064763;28;20551;-39
2023/10/06 11:14:23;;;;;;;8.87;5.23;;;;;;;;;;5067181;28;20213;-37
2023/10/06 11:16:50;;;;;;;9.67;5.13;;;;;;;;;;5073495;28;20207;-39
2023/10/06 11:19:18;;;;;;;8.87;5.27;;;;;;;;;;5059916;28;20208;-41
2023/10/06 11:21:47;;;;;;;8.07;4.83;;;;;;;;;;5065918;28;20632;-39
2023/10/06 11:24:25;;;;;;;7.53;4.33;;;;;;;;;;5070204;28;20216;-35
2023/10/06 11:26:52;;;;;;;9.37;4.93;;;;;;;;;;5056624;28;20226;-35
2023/10/06 11:29:29;;;;;;;8.27;4.40;;;;;;;;;;5069828;28;20197;-42
2023/10/06 11:31:57;;;;;;;10.60;4.27;;;;;;;;;;5071716;28;20212;-36
2023/10/06 11:34:26;;;;;;;6.73;4.07;;;;;;;;;;5067318;28;20206;-36
2023/10/06 11:36:54;;;;;;;7.03;4.50;;;;;;;;;;5065578;28;20270;-38
2023/10/06 11:39:23;;;;;;;8.20;4.23;;;;;;;;;;5072882;28;20215;-42
2023/10/06 11:41:51;;;;;;;8.13;4.43;;;;;;;;;;5061893;28;20210;-41
2023/10/06 11:44:19;;;;;;;7.63;3.83;;;;;;;;;;5060408;28;20225;-40
2023/10/06 11:46:50;;;;;;;7.17;3.70;;;;;;;;;;5073642;28;20232;-39
2023/10/06 11:49:20;;;;;;;7.07;3.63;;;;;;;;;;5063558;28;20198;-39
2023/10/06 11:51:49;;;;;;;6.67;4.07;;;;;;;;;;5060504;28;20213;-36
2023/10/06 11:54:16;;;;;;;10.13;3.30;;;;;;;;;;5064729;28;20456;-39
2023/10/06 11:56:49;;;;;;;4.77;3.03;;;;;;;;;;5068901;28;20217;-35
2023/10/06 11:59:20;;;;;;;5.53;3.43;;;;;;;;;;5072788;28;20209;-38
2023/10/06 12:01:47;;;;;;;5.33;3.07;;;;;;;;;;5071731;28;20201;-37
2023/10/06 12:04:31;;;;;;;6.50;3.33;;;;;;;;;;5064244;28;20228;-36
2023/10/06 12:07:00;;;;;;;5.83;3.03;;;;;;;;;;5070224;28;20228;-39
2023/10/06 12:09:30;;;;;;;4.63;3.17;;;;;;;;;;5070188;28;20218;-41
2023/10/06 12:11:59;;;;;;;6.10;3.30;;;;;;;;;;5058575;28;20209;-35
2023/10/06 12:14:26;;;;;;;7.07;2.70;;;;;;;;;;5057588;28;20267;-39
2023/10/06 12:16:54;;;;;;;6.53;3.20;;;;;;;;;;5066978;28;20831;-45
2023/10/06 12:19:22;;;;;;;7.17;3.13;;;;;;;;;;5056031;28;20232;-40
2023/10/06 12:21:49;;;;;;;5.90;3.27;;;;;;;;;;5068616;28;20205;-41
2023/10/06 12:24:18;;;;;;;4.73;2.90;;;;;;;;;;5071983;28;20201;-38
2023/10/06 12:26:46;;;;;;;5.93;2.93;;;;;;;;;;5062239;28;20236;-43
2023/10/06 12:29:16;;;;;;;6.93;4.00;;;;;;;;;;5067927;28;20205;-40
2023/10/06 12:31:44;;;;;;;7.17;3.33;;;;;;;;;;5069455;28;20209;-40
2023/10/06 12:34:15;;;;;;;6.47;3.33;;;;;;;;;;5064689;28;20232;-37
2023/10/06 12:36:42;;;;;;;7.07;3.90;;;;;;;;;;5065430;28;20228;-35
2023/10/06 12:39:15;;;;;;;12.00;4.20;;;;;;;;;;5068951;28;20232;-41
2023/10/06 12:41:46;;;;;;;7.73;4.33;;;;;;;;;;5065035;28;20211;-38
2023/10/06 12:44:14;;;;;;;9.07;4.53;;;;;;;;;;5057140;28;20197;-38
2023/10/06 12:46:41;;;;;;;8.47;3.70;;;;;;;;;;5072622;28;20674;-42
2023/10/06 12:49:08;;;;;;;8.47;3.90;;;;;;;;;;5071444;28;20239;-38
2023/10/06 12:51:35;;;;;;;10.00;4.07;;;;;;;;;;5062715;28;20644;-41
2023/10/06 12:54:03;;;;;;;7.17;3.70;;;;;;;;;;5070105;28;20284;-36
2023/10/06 12:56:31;;;;;;;7.53;3.93;;;;;;;;;;5066391;28;20209;-38
2023/10/06 12:59:03;;;;;;;7.43;4.00;;;;;;;;;;5068331;28;20215;-38
2023/10/06 13:01:32;;;;;;;7.37;3.07;;;;;;;;;;5070401;28;20197;-36
2023/10/06 13:04:01;;;;;;;6.93;3.77;;;;;;;;;;5072194;28;20205;-39
2023/10/06 13:06:29;;;;;;;7.10;3.60;;;;;;;;;;5067788;28;20201;-41
2023/10/06 13:09:01;;;;;;;6.90;3.27;;;;;;;;;;5065026;28;20229;-41
2023/10/06 13:11:30;;;;;;;8.40;3.53;;;;;;;;;;5057949;28;20306;-37
2023/10/06 13:14:07;;;;;;;7.90;3.67;;;;;;;;;;5062719;28;20289;-38
2023/10/06 13:16:34;;;;;;;5.43;3.13;;;;;;;;;;5065138;28;20213;-34
2023/10/06 13:19:05;;;;;;;4.67;3.00;;;;;;;;;;5071743;28;20240;-39
2023/10/06 13:21:32;;;;;;;6.93;3.07;;;;;;;;;;5064293;28;20236;-36
2023/10/06 13:23:59;;;;;;;6.07;3.63;;;;;;;;;;5068699;28;20201;-41
2023/10/06 13:26:28;;;;;;;6.50;2.90;;;;;;;;;;5068579;28;20204;-34
2023/10/06 13:28:55;;;;;;;7.90;3.27;;;;;;;;;;5066956;28;20236;-35
2023/10/06 13:31:23;;;;;;;6.37;3.47;;;;;;;;;;5070180;28;20225;-36
2023/10/06 13:33:51;;;;;;;5.87;3.10;;;;;;;;;;5070895;28;20217;-39
2023/10/06 13:36:18;;;;;;;7.53;3.73;;;;;;;;;;5060573;28;20206;-35
2023/10/06 13:38:45;;;;;;;7.73;3.40;;;;;;;;;;5065256;28;20205;-34
2023/10/06 13:41:13;;;;;;;4.83;2.93;;;;;;;;;;5063698;28;20229;-37
2023/10/06 13:43:40;;;;;;;6.77;2.90;;;;;;;;;;5061186;28;20221;-39
2023/10/06 13:46:07;;;;;;;7.77;3.23;;;;;;;;;;5071038;28;20222;-33
2023/10/06 13:48:37;;;;;;;4.57;2.83;;;;;;;;;;5069427;28;20229;-35
2023/10/06 13:51:08;;;;;;;5.63;3.00;;;;;;;;;;5063563;28;20225;-38
2023/10/06 13:53:36;;;;;;;3.97;2.60;;;;;;;;;;5070198;28;20201;-39
2023/10/06 13:56:03;;;;;;;8.67;3.00;;;;;;;;;;5066856;28;20217;-37
2023/10/06 13:58:31;;;;;;;5.83;3.27;;;;;;;;;;5068482;28;20201;-41
2023/10/06 14:00:58;;;;;;;5.80;3.23;;;;;;;;;;5071454;28;20229;-36
2023/10/06 14:03:25;;;;;;;5.70;3.27;;;;;;;;;;5070777;28;20205;-39
2023/10/06 14:05:55;;;;;;;6.37;3.10;;;;;;;;;;5067332;28;20209;-36
2023/10/06 14:08:24;;;;;;;17.47;3.50;;;;;;;;;;5066705;28;20221;-37
2023/10/06 14:10:51;;;;;;;4.37;2.93;;;;;;;;;;5067772;28;20233;-39
2023/10/06 14:13:23;;;;;;;5.03;2.87;;;;;;;;;;5060631;28;20220;-37
2023/10/06 14:15:54;;;;;;;5.80;2.70;;;;;;;;;;5070164;28;20834;-43
2023/10/06 14:18:24;;;;;;;4.80;3.20;;;;;;;;;;5069874;28;20209;-40
2023/10/06 14:20:52;;;;;;;7.73;3.60;;;;;;;;;;5062994;28;20315;-38
2023/10/06 14:23:23;;;;;;;5.73;3.37;;;;;;;;;;5064063;28;20286;-33
2023/10/06 14:25:52;;;;;;;6.60;3.27;;;;;;;;;;5064307;28;20240;-41
2023/10/06 14:28:22;;;;;;;5.63;2.93;;;;;;;;;;5066761;28;20318;-41
2023/10/06 14:30:51;;;;;;;6.97;3.10;;;;;;;;;;5068628;28;20233;-37
2023/10/06 14:33:22;;;;;;;6.57;3.23;;;;;;;;;;5069491;28;20213;-34
2023/10/06 14:46:58;;;;;;;9.47;3.70;;;;;;;;;;5041861;28;20241;-38
2023/10/06 14:49:26;;;;;;;7.70;3.20;;;;;;;;;;5073744;28;20239;-34
2023/10/06 14:51:55;;;;;;;8.13;3.50;;;;;;;;;;5069201;28;20292;-34
2023/10/06 14:54:25;;;;;;;6.73;3.90;;;;;;;;;;5073617;28;20564;-37
2023/10/06 14:56:53;;;;;;;4.20;3.23;;;;;;;;;;5066175;28;20691;-32
2023/10/06 14:59:21;;;;;;;4.83;3.23;;;;;;;;;;5069210;28;20208;-38
2023/10/06 15:01:51;;;;;;;8.03;3.37;;;;;;;;;;5074421;28;20220;-39
2023/10/06 15:04:18;;;;;;;6.87;3.67;;;;;;;;;;5073894;28;20205;-42
2023/10/06 15:06:46;;;;;;;5.40;3.00;;;;;;;;;;5065362;28;20216;-36
2023/10/06 15:09:18;;;;;;;6.07;3.20;;;;;;;;;;5073190;28;20217;-33